sensor_id;sensor_type;location;lat;lon;timestamp;temperature;humidity
31979;DHT22;18502;43.574;1.276;2023-06-14T00:01:52;17.00;99.90
31979;DHT22;18502;43.574;1.276;2023-06-14T00:04:18;17.10;99.90
31979;DHT22;18502;43.574;1.276;2023-06-14T00:06:46;17.10;99.90
31979;DHT22;18502;43.574;1.276;2023-06-14T00:09:12;17.20;99.90
31979;DHT22;18502;43.574;1.276;2023-06-14T00:11:43;17.20;99.90
31979;DHT22;18502;43.574;1.276;2023-06-14T00:14:08;17.30;99.90
31979;DHT22;18502;43.574;1.276;2023-06-14T00:16:34;17.40;99.90
31979;DHT22;18502;43.574;1.276;2023-06-14T00:19:01;17.50;99.90
31979;DHT22;18502;43.574;1.276;2023-06-14T00:21:29;17.50;99.90
31979;DHT22;18502;43.574;1.276;2023-06-14T00:23:55;17.60;99.90
31979;DHT22;18502;43.574;1.276;2023-06-14T00:26:21;17.50;99.90
31979;DHT22;18502;43.574;1.276;2023-06-14T00:28:47;17.40;99.90
31979;DHT22;18502;43.574;1.276;2023-06-14T00:31:12;17.40;99.90
31979;DHT22;18502;43.574;1.276;2023-06-14T00:33:38;17.40;99.90
31979;DHT22;18502;43.574;1.276;2023-06-14T00:36:04;17.30;99.90
31979;DHT22;18502;43.574;1.276;2023-06-14T00:38:29;17.40;99.90
31979;DHT22;18502;43.574;1.276;2023-06-14T00:40:55;17.50;99.90
31979;DHT22;18502;43.574;1.276;2023-06-14T00:43:21;17.50;99.90
31979;DHT22;18502;43.574;1.276;2023-06-14T00:45:46;17.60;99.90
31979;DHT22;18502;43.574;1.276;2023-06-14T00:48:13;17.50;99.90
31979;DHT22;18502;43.574;1.276;2023-06-14T00:50:39;17.50;99.90
31979;DHT22;18502;43.574;1.276;2023-06-14T00:53:06;17.50;99.90
31979;DHT22;18502;43.574;1.276;2023-06-14T00:55:32;17.50;99.90
31979;DHT22;18502;43.574;1.276;2023-06-14T00:57:58;17.50;99.90
31979;DHT22;18502;43.574;1.276;2023-06-14T01:00:24;17.60;99.90
31979;DHT22;18502;43.574;1.276;2023-06-14T01:02:50;17.60;99.90
31979;DHT22;18502;43.574;1.276;2023-06-14T01:05:16;17.60;99.90
31979;DHT22;18502;43.574;1.276;2023-06-14T01:10:56;17.60;99.90
31979;DHT22;18502;43.574;1.276;2023-06-14T01:13:33;17.70;99.90
31979;DHT22;18502;43.574;1.276;2023-06-14T01:15:59;17.60;99.90
31979;DHT22;18502;43.574;1.276;2023-06-14T01:18:28;17.60;99.90
31979;DHT22;18502;43.574;1.276;2023-06-14T01:20:55;17.70;99.90
31979;DHT22;18502;43.574;1.276;2023-06-14T01:23:22;17.60;99.90
31979;DHT22;18502;43.574;1.276;2023-06-14T01:25:49;17.60;99.90
31979;DHT22;18502;43.574;1.276;2023-06-14T01:28:19;17.70;99.90
31979;DHT22;18502;43.574;1.276;2023-06-14T01:30:48;17.70;99.90
31979;DHT22;18502;43.574;1.276;2023-06-14T01:33:20;17.60;99.90
31979;DHT22;18502;43.574;1.276;2023-06-14T01:35:51;17.60;99.90
31979;DHT22;18502;43.574;1.276;2023-06-14T01:38:21;17.60;99.90
31979;DHT22;18502;43.574;1.276;2023-06-14T01:40:48;17.60;99.90
31979;DHT22;18502;43.574;1.276;2023-06-14T01:43:15;17.60;99.90
31979;DHT22;18502;43.574;1.276;2023-06-14T01:45:45;17.60;99.90
31979;DHT22;18502;43.574;1.276;2023-06-14T01:48:11;17.50;99.90
31979;DHT22;18502;43.574;1.276;2023-06-14T01:50:37;17.40;99.90
31979;DHT22;18502;43.574;1.276;2023-06-14T01:53:07;17.50;99.90
31979;DHT22;18502;43.574;1.276;2023-06-14T01:55:33;17.50;99.90
31979;DHT22;18502;43.574;1.276;2023-06-14T01:58:03;17.60;99.90
31979;DHT22;18502;43.574;1.276;2023-06-14T02:00:29;17.60;99.90
31979;DHT22;18502;43.574;1.276;2023-06-14T02:02:55;17.60;99.90
31979;DHT22;18502;43.574;1.276;2023-06-14T02:05:21;17.50;99.90
31979;DHT22;18502;43.574;1.276;2023-06-14T02:07:47;17.60;99.90
31979;DHT22;18502;43.574;1.276;2023-06-14T02:10:13;17.50;99.90
31979;DHT22;18502;43.574;1.276;2023-06-14T02:12:40;17.50;99.90
31979;DHT22;18502;43.574;1.276;2023-06-14T02:15:06;17.50;99.90
31979;DHT22;18502;43.574;1.276;2023-06-14T02:17:32;17.50;99.90
31979;DHT22;18502;43.574;1.276;2023-06-14T02:19:58;17.50;99.90
31979;DHT22;18502;43.574;1.276;2023-06-14T02:22:25;17.50;99.90
31979;DHT22;18502;43.574;1.276;2023-06-14T02:24:50;17.50;99.90
31979;DHT22;18502;43.574;1.276;2023-06-14T02:27:16;17.40;99.90
31979;DHT22;18502;43.574;1.276;2023-06-14T02:29:42;17.40;99.90
31979;DHT22;18502;43.574;1.276;2023-06-14T02:32:08;17.40;99.90
31979;DHT22;18502;43.574;1.276;2023-06-14T02:34:34;17.50;99.90
31979;DHT22;18502;43.574;1.276;2023-06-14T02:37:00;17.40;99.90
31979;DHT22;18502;43.574;1.276;2023-06-14T02:39:28;17.40;99.90
31979;DHT22;18502;43.574;1.276;2023-06-14T02:41:54;17.40;99.90
31979;DHT22;18502;43.574;1.276;2023-06-14T02:44:23;17.40;99.90
31979;DHT22;18502;43.574;1.276;2023-06-14T02:46:49;17.50;99.90
31979;DHT22;18502;43.574;1.276;2023-06-14T02:49:15;17.50;99.90
31979;DHT22;18502;43.574;1.276;2023-06-14T02:51:40;17.50;99.90
31979;DHT22;18502;43.574;1.276;2023-06-14T02:54:06;17.40;99.90
31979;DHT22;18502;43.574;1.276;2023-06-14T02:56:32;17.50;99.90
31979;DHT22;18502;43.574;1.276;2023-06-14T02:58:57;17.40;99.90
31979;DHT22;18502;43.574;1.276;2023-06-14T03:01:27;17.50;99.90
31979;DHT22;18502;43.574;1.276;2023-06-14T03:03:59;17.50;99.90
31979;DHT22;18502;43.574;1.276;2023-06-14T03:06:25;17.50;99.90
31979;DHT22;18502;43.574;1.276;2023-06-14T03:08:50;17.50;99.90
31979;DHT22;18502;43.574;1.276;2023-06-14T03:11:17;17.50;99.90
31979;DHT22;18502;43.574;1.276;2023-06-14T03:13:45;17.50;99.90
31979;DHT22;18502;43.574;1.276;2023-06-14T03:16:12;17.50;99.90
31979;DHT22;18502;43.574;1.276;2023-06-14T03:18:38;17.50;99.90
31979;DHT22;18502;43.574;1.276;2023-06-14T03:21:04;17.50;99.90
31979;DHT22;18502;43.574;1.276;2023-06-14T03:23:30;17.50;99.90
31979;DHT22;18502;43.574;1.276;2023-06-14T03:25:57;17.50;99.90
31979;DHT22;18502;43.574;1.276;2023-06-14T03:28:22;17.50;99.90
31979;DHT22;18502;43.574;1.276;2023-06-14T03:30:48;17.50;99.90
31979;DHT22;18502;43.574;1.276;2023-06-14T03:33:14;17.50;99.90
31979;DHT22;18502;43.574;1.276;2023-06-14T03:35:40;17.40;99.90
31979;DHT22;18502;43.574;1.276;2023-06-14T03:38:06;17.50;99.90
31979;DHT22;18502;43.574;1.276;2023-06-14T03:40:32;17.40;99.90
31979;DHT22;18502;43.574;1.276;2023-06-14T03:42:58;17.40;99.90
31979;DHT22;18502;43.574;1.276;2023-06-14T03:45:23;17.40;99.90
31979;DHT22;18502;43.574;1.276;2023-06-14T03:47:49;17.40;99.90
31979;DHT22;18502;43.574;1.276;2023-06-14T03:50:16;17.40;99.90
31979;DHT22;18502;43.574;1.276;2023-06-14T03:52:42;17.40;99.90
31979;DHT22;18502;43.574;1.276;2023-06-14T03:55:09;17.40;99.90
31979;DHT22;18502;43.574;1.276;2023-06-14T03:57:35;17.50;99.90
31979;DHT22;18502;43.574;1.276;2023-06-14T04:00:01;17.50;99.90
31979;DHT22;18502;43.574;1.276;2023-06-14T04:02:27;17.50;99.90
31979;DHT22;18502;43.574;1.276;2023-06-14T04:04:54;17.50;99.90
31979;DHT22;18502;43.574;1.276;2023-06-14T04:07:20;17.60;99.90
31979;DHT22;18502;43.574;1.276;2023-06-14T04:09:46;17.60;99.90
31979;DHT22;18502;43.574;1.276;2023-06-14T04:12:12;17.60;99.90
31979;DHT22;18502;43.574;1.276;2023-06-14T04:14:39;17.60;99.90
31979;DHT22;18502;43.574;1.276;2023-06-14T04:17:06;17.60;99.90
31979;DHT22;18502;43.574;1.276;2023-06-14T04:19:32;17.60;99.90
31979;DHT22;18502;43.574;1.276;2023-06-14T04:21:58;17.60;99.90
31979;DHT22;18502;43.574;1.276;2023-06-14T04:24:26;17.70;99.90
31979;DHT22;18502;43.574;1.276;2023-06-14T04:27:00;17.70;99.90
31979;DHT22;18502;43.574;1.276;2023-06-14T04:29:26;17.70;99.90
31979;DHT22;18502;43.574;1.276;2023-06-14T04:31:55;17.70;99.90
31979;DHT22;18502;43.574;1.276;2023-06-14T04:34:27;17.70;99.90
31979;DHT22;18502;43.574;1.276;2023-06-14T04:36:55;17.80;99.90
31979;DHT22;18502;43.574;1.276;2023-06-14T04:39:22;17.80;99.90
31979;DHT22;18502;43.574;1.276;2023-06-14T04:41:48;17.80;99.90
31979;DHT22;18502;43.574;1.276;2023-06-14T04:44:18;17.80;99.90
31979;DHT22;18502;43.574;1.276;2023-06-14T04:46:45;17.80;99.90
31979;DHT22;18502;43.574;1.276;2023-06-14T04:49:15;17.80;99.90
31979;DHT22;18502;43.574;1.276;2023-06-14T04:51:44;17.90;99.90
31979;DHT22;18502;43.574;1.276;2023-06-14T04:54:11;17.90;99.90
31979;DHT22;18502;43.574;1.276;2023-06-14T04:56:39;17.90;99.90
31979;DHT22;18502;43.574;1.276;2023-06-14T04:59:05;17.90;99.90
31979;DHT22;18502;43.574;1.276;2023-06-14T05:01:31;17.90;99.90
31979;DHT22;18502;43.574;1.276;2023-06-14T05:03:58;17.90;99.90
31979;DHT22;18502;43.574;1.276;2023-06-14T05:06:24;18.00;99.90
31979;DHT22;18502;43.574;1.276;2023-06-14T05:08:49;17.90;99.90
31979;DHT22;18502;43.574;1.276;2023-06-14T05:11:16;18.00;99.90
31979;DHT22;18502;43.574;1.276;2023-06-14T05:13:44;18.00;99.90
31979;DHT22;18502;43.574;1.276;2023-06-14T05:16:11;18.00;99.90
31979;DHT22;18502;43.574;1.276;2023-06-14T05:18:37;18.00;99.90
31979;DHT22;18502;43.574;1.276;2023-06-14T05:21:04;18.00;99.90
31979;DHT22;18502;43.574;1.276;2023-06-14T05:23:32;18.10;99.90
31979;DHT22;18502;43.574;1.276;2023-06-14T05:25:58;18.10;99.90
31979;DHT22;18502;43.574;1.276;2023-06-14T05:28:24;18.10;99.90
31979;DHT22;18502;43.574;1.276;2023-06-14T05:30:50;18.10;99.90
31979;DHT22;18502;43.574;1.276;2023-06-14T05:33:16;18.20;99.90
31979;DHT22;18502;43.574;1.276;2023-06-14T05:35:42;18.20;99.90
31979;DHT22;18502;43.574;1.276;2023-06-14T05:38:08;18.20;99.90
31979;DHT22;18502;43.574;1.276;2023-06-14T05:40:34;18.20;99.90
31979;DHT22;18502;43.574;1.276;2023-06-14T05:43:00;18.30;99.90
31979;DHT22;18502;43.574;1.276;2023-06-14T05:45:25;18.40;99.90
31979;DHT22;18502;43.574;1.276;2023-06-14T05:47:52;18.40;99.90
31979;DHT22;18502;43.574;1.276;2023-06-14T05:50:20;18.40;99.90
31979;DHT22;18502;43.574;1.276;2023-06-14T05:52:46;18.40;99.90
31979;DHT22;18502;43.574;1.276;2023-06-14T05:55:12;18.40;99.90
31979;DHT22;18502;43.574;1.276;2023-06-14T05:57:38;18.50;99.90
31979;DHT22;18502;43.574;1.276;2023-06-14T06:00:04;18.40;99.90
31979;DHT22;18502;43.574;1.276;2023-06-14T06:02:42;18.50;99.90
31979;DHT22;18502;43.574;1.276;2023-06-14T06:05:11;18.50;99.90
31979;DHT22;18502;43.574;1.276;2023-06-14T06:07:37;18.60;99.90
31979;DHT22;18502;43.574;1.276;2023-06-14T06:10:04;18.70;99.90
31979;DHT22;18502;43.574;1.276;2023-06-14T06:12:30;18.70;99.90
31979;DHT22;18502;43.574;1.276;2023-06-14T06:14:56;18.80;99.90
31979;DHT22;18502;43.574;1.276;2023-06-14T06:17:22;18.90;99.90
31979;DHT22;18502;43.574;1.276;2023-06-14T06:19:47;18.80;99.90
31979;DHT22;18502;43.574;1.276;2023-06-14T06:22:13;18.90;99.90
31979;DHT22;18502;43.574;1.276;2023-06-14T06:24:38;18.90;99.90
31979;DHT22;18502;43.574;1.276;2023-06-14T06:27:04;18.90;99.90
31979;DHT22;18502;43.574;1.276;2023-06-14T06:29:30;19.00;99.90
31979;DHT22;18502;43.574;1.276;2023-06-14T06:31:56;18.90;99.90
31979;DHT22;18502;43.574;1.276;2023-06-14T06:34:22;18.80;99.90
31979;DHT22;18502;43.574;1.276;2023-06-14T06:36:47;18.80;99.90
31979;DHT22;18502;43.574;1.276;2023-06-14T06:39:13;18.80;99.90
31979;DHT22;18502;43.574;1.276;2023-06-14T06:41:40;18.70;99.90
31979;DHT22;18502;43.574;1.276;2023-06-14T06:44:06;18.80;99.90
31979;DHT22;18502;43.574;1.276;2023-06-14T06:46:33;18.90;99.90
31979;DHT22;18502;43.574;1.276;2023-06-14T06:48:59;19.00;99.90
31979;DHT22;18502;43.574;1.276;2023-06-14T06:51:25;19.10;99.90
31979;DHT22;18502;43.574;1.276;2023-06-14T06:53:54;19.30;99.90
31979;DHT22;18502;43.574;1.276;2023-06-14T06:56:21;19.30;99.90
31979;DHT22;18502;43.574;1.276;2023-06-14T06:58:49;19.30;99.90
31979;DHT22;18502;43.574;1.276;2023-06-14T07:01:15;19.50;99.90
31979;DHT22;18502;43.574;1.276;2023-06-14T07:03:42;19.70;99.90
31979;DHT22;18502;43.574;1.276;2023-06-14T07:06:07;19.70;99.90
31979;DHT22;18502;43.574;1.276;2023-06-14T07:08:33;19.90;99.90
31979;DHT22;18502;43.574;1.276;2023-06-14T07:10:58;20.20;99.90
31979;DHT22;18502;43.574;1.276;2023-06-14T07:13:24;20.40;99.90
31979;DHT22;18502;43.574;1.276;2023-06-14T07:15:50;20.50;99.90
31979;DHT22;18502;43.574;1.276;2023-06-14T07:18:18;20.80;99.90
31979;DHT22;18502;43.574;1.276;2023-06-14T07:20:44;21.10;99.90
31979;DHT22;18502;43.574;1.276;2023-06-14T07:23:10;21.30;99.90
31979;DHT22;18502;43.574;1.276;2023-06-14T07:25:36;21.20;99.90
31979;DHT22;18502;43.574;1.276;2023-06-14T07:28:01;21.10;99.90
31979;DHT22;18502;43.574;1.276;2023-06-14T07:30:27;21.20;99.90
31979;DHT22;18502;43.574;1.276;2023-06-14T07:32:55;21.10;99.90
31979;DHT22;18502;43.574;1.276;2023-06-14T07:35:21;21.10;99.90
31979;DHT22;18502;43.574;1.276;2023-06-14T07:37:47;21.70;99.90
31979;DHT22;18502;43.574;1.276;2023-06-14T07:40:13;21.70;99.90
31979;DHT22;18502;43.574;1.276;2023-06-14T07:42:39;21.90;99.90
31979;DHT22;18502;43.574;1.276;2023-06-14T07:45:05;21.80;99.90
31979;DHT22;18502;43.574;1.276;2023-06-14T07:47:31;21.60;99.90
31979;DHT22;18502;43.574;1.276;2023-06-14T07:49:57;21.20;99.90
31979;DHT22;18502;43.574;1.276;2023-06-14T07:52:22;21.30;99.90
31979;DHT22;18502;43.574;1.276;2023-06-14T07:54:48;21.40;99.90
31979;DHT22;18502;43.574;1.276;2023-06-14T07:57:14;21.80;99.90
31979;DHT22;18502;43.574;1.276;2023-06-14T07:59:40;21.80;99.90
31979;DHT22;18502;43.574;1.276;2023-06-14T08:02:06;21.90;99.90
31979;DHT22;18502;43.574;1.276;2023-06-14T08:04:32;22.00;99.90
31979;DHT22;18502;43.574;1.276;2023-06-14T08:06:59;22.10;99.90
31979;DHT22;18502;43.574;1.276;2023-06-14T08:09:25;21.80;99.90
31979;DHT22;18502;43.574;1.276;2023-06-14T08:11:51;21.90;99.90
31979;DHT22;18502;43.574;1.276;2023-06-14T08:14:16;22.30;99.90
31979;DHT22;18502;43.574;1.276;2023-06-14T08:16:42;22.00;99.90
31979;DHT22;18502;43.574;1.276;2023-06-14T08:19:08;22.20;99.90
31979;DHT22;18502;43.574;1.276;2023-06-14T08:21:33;21.90;99.90
31979;DHT22;18502;43.574;1.276;2023-06-14T08:24:02;21.70;99.90
31979;DHT22;18502;43.574;1.276;2023-06-14T08:26:27;22.00;99.90
31979;DHT22;18502;43.574;1.276;2023-06-14T08:28:57;22.20;99.90
31979;DHT22;18502;43.574;1.276;2023-06-14T08:31:23;21.50;99.90
31979;DHT22;18502;43.574;1.276;2023-06-14T08:33:50;21.60;99.90
31979;DHT22;18502;43.574;1.276;2023-06-14T08:36:15;21.70;99.90
31979;DHT22;18502;43.574;1.276;2023-06-14T08:38:41;21.60;99.90
31979;DHT22;18502;43.574;1.276;2023-06-14T08:41:08;21.80;99.90
31979;DHT22;18502;43.574;1.276;2023-06-14T08:43:37;21.80;99.90
31979;DHT22;18502;43.574;1.276;2023-06-14T08:46:03;22.10;99.90
31979;DHT22;18502;43.574;1.276;2023-06-14T08:48:30;21.80;99.90
31979;DHT22;18502;43.574;1.276;2023-06-14T08:51:02;22.00;99.90
31979;DHT22;18502;43.574;1.276;2023-06-14T08:53:33;22.50;99.90
31979;DHT22;18502;43.574;1.276;2023-06-14T08:56:02;22.30;99.90
31979;DHT22;18502;43.574;1.276;2023-06-14T08:58:31;22.30;99.90
31979;DHT22;18502;43.574;1.276;2023-06-14T09:01:02;21.70;99.90
31979;DHT22;18502;43.574;1.276;2023-06-14T09:03:28;21.80;99.90
31979;DHT22;18502;43.574;1.276;2023-06-14T09:05:59;21.90;99.90
31979;DHT22;18502;43.574;1.276;2023-06-14T09:08:26;22.30;99.90
31979;DHT22;18502;43.574;1.276;2023-06-14T09:10:56;22.80;99.90
31979;DHT22;18502;43.574;1.276;2023-06-14T09:13:21;22.70;99.90
31979;DHT22;18502;43.574;1.276;2023-06-14T09:15:47;22.60;99.90
31979;DHT22;18502;43.574;1.276;2023-06-14T09:18:13;22.90;99.90
31979;DHT22;18502;43.574;1.276;2023-06-14T09:20:38;23.10;99.90
31979;DHT22;18502;43.574;1.276;2023-06-14T09:23:05;23.30;99.90
31979;DHT22;18502;43.574;1.276;2023-06-14T09:25:31;23.50;99.90
31979;DHT22;18502;43.574;1.276;2023-06-14T09:27:56;23.00;99.90
31979;DHT22;18502;43.574;1.276;2023-06-14T09:30:22;22.90;99.90
31979;DHT22;18502;43.574;1.276;2023-06-14T09:32:47;22.50;99.90
31979;DHT22;18502;43.574;1.276;2023-06-14T09:35:17;22.90;99.90
31979;DHT22;18502;43.574;1.276;2023-06-14T09:37:43;23.10;99.90
31979;DHT22;18502;43.574;1.276;2023-06-14T09:40:09;23.30;99.90
31979;DHT22;18502;43.574;1.276;2023-06-14T09:42:36;23.00;99.90
31979;DHT22;18502;43.574;1.276;2023-06-14T09:45:03;23.20;99.90
31979;DHT22;18502;43.574;1.276;2023-06-14T09:47:29;23.20;99.90
31979;DHT22;18502;43.574;1.276;2023-06-14T09:49:55;23.20;99.90
31979;DHT22;18502;43.574;1.276;2023-06-14T09:52:22;24.00;99.90
31979;DHT22;18502;43.574;1.276;2023-06-14T09:54:52;24.00;99.90
31979;DHT22;18502;43.574;1.276;2023-06-14T09:57:23;24.10;99.90
31979;DHT22;18502;43.574;1.276;2023-06-14T09:59:54;24.50;99.90
31979;DHT22;18502;43.574;1.276;2023-06-14T10:02:28;23.80;99.90
31979;DHT22;18502;43.574;1.276;2023-06-14T10:05:15;23.50;99.90
31979;DHT22;18502;43.574;1.276;2023-06-14T10:07:53;23.10;99.90
31979;DHT22;18502;43.574;1.276;2023-06-14T10:10:21;23.40;99.90
31979;DHT22;18502;43.574;1.276;2023-06-14T10:12:47;23.90;99.90
31979;DHT22;18502;43.574;1.276;2023-06-14T10:21:41;24.40;99.90
31979;DHT22;18502;43.574;1.276;2023-06-14T10:24:12;25.40;99.90
31979;DHT22;18502;43.574;1.276;2023-06-14T10:26:54;25.40;99.90
31979;DHT22;18502;43.574;1.276;2023-06-14T10:29:20;24.50;99.90
31979;DHT22;18502;43.574;1.276;2023-06-14T10:31:47;24.30;99.90
31979;DHT22;18502;43.574;1.276;2023-06-14T10:34:29;24.30;99.90
31979;DHT22;18502;43.574;1.276;2023-06-14T10:37:11;25.40;99.90
31979;DHT22;18502;43.574;1.276;2023-06-14T10:39:42;25.00;99.90
31979;DHT22;18502;43.574;1.276;2023-06-14T10:42:08;25.10;99.90
31979;DHT22;18502;43.574;1.276;2023-06-14T10:44:39;24.80;99.90
31979;DHT22;18502;43.574;1.276;2023-06-14T10:47:22;25.20;99.90
31979;DHT22;18502;43.574;1.276;2023-06-14T10:49:51;25.00;99.90
31979;DHT22;18502;43.574;1.276;2023-06-14T10:52:22;24.70;99.90
31979;DHT22;18502;43.574;1.276;2023-06-14T10:55:15;24.70;99.90
31979;DHT22;18502;43.574;1.276;2023-06-14T10:57:51;25.10;99.90
31979;DHT22;18502;43.574;1.276;2023-06-14T11:00:21;25.30;99.90
31979;DHT22;18502;43.574;1.276;2023-06-14T11:05:48;26.30;99.90
31979;DHT22;18502;43.574;1.276;2023-06-14T11:10:44;25.60;99.90
31979;DHT22;18502;43.574;1.276;2023-06-14T11:13:14;25.30;99.90
31979;DHT22;18502;43.574;1.276;2023-06-14T11:15:45;26.30;99.90
31979;DHT22;18502;43.574;1.276;2023-06-14T11:18:15;26.80;99.90
31979;DHT22;18502;43.574;1.276;2023-06-14T11:20:42;26.00;99.90
31979;DHT22;18502;43.574;1.276;2023-06-14T11:23:07;25.40;99.90
31979;DHT22;18502;43.574;1.276;2023-06-14T11:25:33;25.60;99.90
31979;DHT22;18502;43.574;1.276;2023-06-14T11:27:59;25.80;99.90
31979;DHT22;18502;43.574;1.276;2023-06-14T11:30:25;26.30;99.90
31979;DHT22;18502;43.574;1.276;2023-06-14T11:32:53;25.90;99.90
31979;DHT22;18502;43.574;1.276;2023-06-14T11:35:21;26.10;99.90
31979;DHT22;18502;43.574;1.276;2023-06-14T11:37:49;26.70;99.90
31979;DHT22;18502;43.574;1.276;2023-06-14T11:40:15;26.20;99.90
31979;DHT22;18502;43.574;1.276;2023-06-14T11:42:41;26.40;99.90
31979;DHT22;18502;43.574;1.276;2023-06-14T11:45:08;26.70;99.90
31979;DHT22;18502;43.574;1.276;2023-06-14T11:47:35;26.40;99.90
31979;DHT22;18502;43.574;1.276;2023-06-14T11:50:02;26.90;99.90
31979;DHT22;18502;43.574;1.276;2023-06-14T11:52:28;26.30;99.90
31979;DHT22;18502;43.574;1.276;2023-06-14T11:54:54;27.10;99.90
31979;DHT22;18502;43.574;1.276;2023-06-14T11:57:19;27.30;99.90
31979;DHT22;18502;43.574;1.276;2023-06-14T11:59:45;26.60;99.90
31979;DHT22;18502;43.574;1.276;2023-06-14T12:02:19;27.80;99.90
31979;DHT22;18502;43.574;1.276;2023-06-14T12:04:47;28.60;99.90
31979;DHT22;18502;43.574;1.276;2023-06-14T12:07:17;30.20;99.90
31979;DHT22;18502;43.574;1.276;2023-06-14T12:12:23;30.40;99.90
31979;DHT22;18502;43.574;1.276;2023-06-14T12:14:51;35.10;99.90
31979;DHT22;18502;43.574;1.276;2023-06-14T12:17:18;32.00;96.40
31979;DHT22;18502;43.574;1.276;2023-06-14T12:19:45;30.30;99.20
31979;DHT22;18502;43.574;1.276;2023-06-14T12:22:11;33.80;94.70
31979;DHT22;18502;43.574;1.276;2023-06-14T12:24:37;30.60;98.10
31979;DHT22;18502;43.574;1.276;2023-06-14T12:27:03;29.60;98.00
31979;DHT22;18502;43.574;1.276;2023-06-14T12:29:30;32.90;95.20
31979;DHT22;18502;43.574;1.276;2023-06-14T12:31:56;35.10;90.10
31979;DHT22;18502;43.574;1.276;2023-06-14T12:34:28;29.90;91.40
31979;DHT22;18502;43.574;1.276;2023-06-14T12:36:54;27.60;98.70
31979;DHT22;18502;43.574;1.276;2023-06-14T12:39:21;34.10;92.00
31979;DHT22;18502;43.574;1.276;2023-06-14T12:41:47;36.30;87.20
31979;DHT22;18502;43.574;1.276;2023-06-14T12:44:14;33.20;86.00
31979;DHT22;18502;43.574;1.276;2023-06-14T12:46:41;32.90;90.40
31979;DHT22;18502;43.574;1.276;2023-06-14T12:49:09;32.00;86.80
31979;DHT22;18502;43.574;1.276;2023-06-14T12:51:36;30.90;93.00
31979;DHT22;18502;43.574;1.276;2023-06-14T12:54:02;33.50;84.50
31979;DHT22;18502;43.574;1.276;2023-06-14T12:56:28;34.20;79.40
31979;DHT22;18502;43.574;1.276;2023-06-14T12:58:53;35.30;78.30
31979;DHT22;18502;43.574;1.276;2023-06-14T13:01:19;36.50;75.30
31979;DHT22;18502;43.574;1.276;2023-06-14T13:03:46;36.10;71.60
31979;DHT22;18502;43.574;1.276;2023-06-14T13:06:12;37.50;69.50
31979;DHT22;18502;43.574;1.276;2023-06-14T13:08:38;37.20;62.90
31979;DHT22;18502;43.574;1.276;2023-06-14T13:11:04;33.40;68.50
31979;DHT22;18502;43.574;1.276;2023-06-14T13:13:29;29.50;81.90
31979;DHT22;18502;43.574;1.276;2023-06-14T13:15:55;28.00;90.70
31979;DHT22;18502;43.574;1.276;2023-06-14T13:18:21;28.10;91.00
31979;DHT22;18502;43.574;1.276;2023-06-14T13:20:47;27.80;92.70
31979;DHT22;18502;43.574;1.276;2023-06-14T13:23:12;27.00;95.00
31979;DHT22;18502;43.574;1.276;2023-06-14T13:25:39;32.60;90.70
31979;DHT22;18502;43.574;1.276;2023-06-14T13:28:05;35.00;77.70
31979;DHT22;18502;43.574;1.276;2023-06-14T13:30:31;37.00;68.60
31979;DHT22;18502;43.574;1.276;2023-06-14T13:32:57;37.20;65.10
31979;DHT22;18502;43.574;1.276;2023-06-14T13:35:23;36.30;64.90
31979;DHT22;18502;43.574;1.276;2023-06-14T13:37:50;35.20;63.80
31979;DHT22;18502;43.574;1.276;2023-06-14T13:40:16;34.40;70.20
31979;DHT22;18502;43.574;1.276;2023-06-14T13:42:41;32.60;74.70
31979;DHT22;18502;43.574;1.276;2023-06-14T13:45:08;29.30;85.70
31979;DHT22;18502;43.574;1.276;2023-06-14T13:47:34;27.30;92.40
31979;DHT22;18502;43.574;1.276;2023-06-14T13:50:00;23.70;99.90
31979;DHT22;18502;43.574;1.276;2023-06-14T13:52:26;22.00;99.90
31979;DHT22;18502;43.574;1.276;2023-06-14T13:54:52;21.70;99.90
31979;DHT22;18502;43.574;1.276;2023-06-14T13:57:18;21.40;99.90
31979;DHT22;18502;43.574;1.276;2023-06-14T13:59:44;21.20;99.90
31979;DHT22;18502;43.574;1.276;2023-06-14T14:02:10;21.50;99.90
31979;DHT22;18502;43.574;1.276;2023-06-14T14:04:37;22.50;99.90
31979;DHT22;18502;43.574;1.276;2023-06-14T14:07:04;23.90;99.90
31979;DHT22;18502;43.574;1.276;2023-06-14T14:09:31;23.60;99.90
31979;DHT22;18502;43.574;1.276;2023-06-14T14:11:58;23.50;99.90
31979;DHT22;18502;43.574;1.276;2023-06-14T14:14:24;23.40;99.90
31979;DHT22;18502;43.574;1.276;2023-06-14T14:16:50;24.90;99.90
31979;DHT22;18502;43.574;1.276;2023-06-14T14:19:20;23.70;99.90
31979;DHT22;18502;43.574;1.276;2023-06-14T14:21:46;23.60;99.90
31979;DHT22;18502;43.574;1.276;2023-06-14T14:24:12;23.60;99.90
31979;DHT22;18502;43.574;1.276;2023-06-14T14:26:38;23.50;99.90
31979;DHT22;18502;43.574;1.276;2023-06-14T14:29:04;24.40;99.90
31979;DHT22;18502;43.574;1.276;2023-06-14T14:31:30;25.40;99.90
31979;DHT22;18502;43.574;1.276;2023-06-14T14:33:56;26.40;99.90
31979;DHT22;18502;43.574;1.276;2023-06-14T14:36:21;28.40;99.90
31979;DHT22;18502;43.574;1.276;2023-06-14T14:38:47;28.90;99.90
31979;DHT22;18502;43.574;1.276;2023-06-14T14:41:13;28.90;99.90
31979;DHT22;18502;43.574;1.276;2023-06-14T14:43:39;30.60;99.90
31979;DHT22;18502;43.574;1.276;2023-06-14T14:46:05;31.80;99.90
31979;DHT22;18502;43.574;1.276;2023-06-14T14:48:31;28.20;99.90
31979;DHT22;18502;43.574;1.276;2023-06-14T14:50:57;26.90;99.90
31979;DHT22;18502;43.574;1.276;2023-06-14T14:53:23;26.20;99.90
31979;DHT22;18502;43.574;1.276;2023-06-14T14:55:49;25.90;99.90
31979;DHT22;18502;43.574;1.276;2023-06-14T14:58:14;25.70;99.90
31979;DHT22;18502;43.574;1.276;2023-06-14T15:00:44;25.30;99.90
31979;DHT22;18502;43.574;1.276;2023-06-14T15:03:10;24.20;99.90
31979;DHT22;18502;43.574;1.276;2023-06-14T15:05:36;25.30;99.90
31979;DHT22;18502;43.574;1.276;2023-06-14T15:08:03;25.40;99.90
31979;DHT22;18502;43.574;1.276;2023-06-14T15:10:29;27.80;99.90
31979;DHT22;18502;43.574;1.276;2023-06-14T15:12:54;28.20;99.90
31979;DHT22;18502;43.574;1.276;2023-06-14T15:15:22;30.50;99.90
31979;DHT22;18502;43.574;1.276;2023-06-14T15:17:47;31.30;99.90
31979;DHT22;18502;43.574;1.276;2023-06-14T15:20:13;31.30;99.90
31979;DHT22;18502;43.574;1.276;2023-06-14T15:22:40;33.10;97.20
31979;DHT22;18502;43.574;1.276;2023-06-14T15:25:06;32.80;95.40
31979;DHT22;18502;43.574;1.276;2023-06-14T15:27:32;32.50;92.20
31979;DHT22;18502;43.574;1.276;2023-06-14T15:29:58;32.90;91.90
31979;DHT22;18502;43.574;1.276;2023-06-14T15:32:23;33.70;85.10
31979;DHT22;18502;43.574;1.276;2023-06-14T15:34:49;34.60;81.50
31979;DHT22;18502;43.574;1.276;2023-06-14T15:37:15;34.20;82.90
31979;DHT22;18502;43.574;1.276;2023-06-14T15:39:41;32.80;84.00
31979;DHT22;18502;43.574;1.276;2023-06-14T15:42:07;30.70;92.40
31979;DHT22;18502;43.574;1.276;2023-06-14T15:44:33;30.00;99.90
31979;DHT22;18502;43.574;1.276;2023-06-14T15:46:59;27.90;99.90